sensor_id;sensor_type;location;lat;lon;timestamp;P1;durP1;ratioP1;P2;durP2;ratioP2
77146;SDS011;66121;52.584;9.694;2024-03-06T00:01:57;16.60;;;7.03;;
77146;SDS011;66121;52.584;9.694;2024-03-06T00:04:22;11.85;;;6.47;;
77146;SDS011;66121;52.584;9.694;2024-03-06T00:06:48;10.93;;;6.28;;
77146;SDS011;66121;52.584;9.694;2024-03-06T00:09:13;14.98;;;6.97;;
77146;SDS011;66121;52.584;9.694;2024-03-06T00:11:39;14.48;;;5.68;;
77146;SDS011;66121;52.584;9.694;2024-03-06T00:14:05;10.75;;;4.68;;
77146;SDS011;66121;52.584;9.694;2024-03-06T00:16:31;9.73;;;5.68;;
77146;SDS011;66121;52.584;9.694;2024-03-06T00:18:56;14.00;;;7.20;;
77146;SDS011;66121;52.584;9.694;2024-03-06T00:21:22;14.77;;;6.72;;
77146;SDS011;66121;52.584;9.694;2024-03-06T00:23:47;16.73;;;8.17;;
77146;SDS011;66121;52.584;9.694;2024-03-06T00:26:12;15.45;;;6.68;;
77146;SDS011;66121;52.584;9.694;2024-03-06T00:28:38;13.57;;;5.90;;
77146;SDS011;66121;52.584;9.694;2024-03-06T00:31:07;19.50;;;8.27;;
77146;SDS011;66121;52.584;9.694;2024-03-06T00:33:32;17.23;;;7.20;;
77146;SDS011;66121;52.584;9.694;2024-03-06T00:35:57;14.37;;;6.97;;
77146;SDS011;66121;52.584;9.694;2024-03-06T00:38:23;11.63;;;6.40;;
77146;SDS011;66121;52.584;9.694;2024-03-06T00:40:48;13.23;;;6.65;;
77146;SDS011;66121;52.584;9.694;2024-03-06T00:43:14;17.33;;;8.52;;
77146;SDS011;66121;52.584;9.694;2024-03-06T00:45:39;11.57;;;7.03;;
77146;SDS011;66121;52.584;9.694;2024-03-06T00:48:05;15.85;;;7.80;;
77146;SDS011;66121;52.584;9.694;2024-03-06T00:50:31;14.15;;;5.38;;
77146;SDS011;66121;52.584;9.694;2024-03-06T00:52:57;15.25;;;8.32;;
77146;SDS011;66121;52.584;9.694;2024-03-06T00:55:22;13.57;;;7.03;;
77146;SDS011;66121;52.584;9.694;2024-03-06T00:57:48;14.03;;;6.57;;
77146;SDS011;66121;52.584;9.694;2024-03-06T01:00:13;19.47;;;7.57;;
77146;SDS011;66121;52.584;9.694;2024-03-06T01:02:40;18.08;;;8.15;;
77146;SDS011;66121;52.584;9.694;2024-03-06T01:05:06;12.25;;;6.70;;
77146;SDS011;66121;52.584;9.694;2024-03-06T01:07:32;13.48;;;6.60;;
77146;SDS011;66121;52.584;9.694;2024-03-06T01:09:59;13.48;;;6.80;;
77146;SDS011;66121;52.584;9.694;2024-03-06T01:12:26;15.77;;;7.03;;
77146;SDS011;66121;52.584;9.694;2024-03-06T01:14:52;16.38;;;8.18;;
77146;SDS011;66121;52.584;9.694;2024-03-06T01:17:17;15.52;;;6.78;;
77146;SDS011;66121;52.584;9.694;2024-03-06T01:19:42;10.70;;;5.68;;
77146;SDS011;66121;52.584;9.694;2024-03-06T01:22:11;18.83;;;8.23;;
77146;SDS011;66121;52.584;9.694;2024-03-06T01:24:38;20.45;;;7.75;;
77146;SDS011;66121;52.584;9.694;2024-03-06T01:27:03;12.43;;;6.07;;
77146;SDS011;66121;52.584;9.694;2024-03-06T01:29:29;15.87;;;8.30;;
77146;SDS011;66121;52.584;9.694;2024-03-06T01:31:54;20.90;;;9.40;;
77146;SDS011;66121;52.584;9.694;2024-03-06T01:34:19;16.48;;;8.15;;
77146;SDS011;66121;52.584;9.694;2024-03-06T01:36:45;11.50;;;6.10;;
77146;SDS011;66121;52.584;9.694;2024-03-06T01:39:10;16.35;;;8.05;;
77146;SDS011;66121;52.584;9.694;2024-03-06T01:41:36;18.55;;;8.68;;
77146;SDS011;66121;52.584;9.694;2024-03-06T01:44:01;16.63;;;8.15;;
77146;SDS011;66121;52.584;9.694;2024-03-06T01:46:28;20.75;;;9.38;;
77146;SDS011;66121;52.584;9.694;2024-03-06T01:48:54;15.90;;;8.00;;
77146;SDS011;66121;52.584;9.694;2024-03-06T01:51:19;14.13;;;6.85;;
77146;SDS011;66121;52.584;9.694;2024-03-06T01:53:45;18.05;;;8.30;;
77146;SDS011;66121;52.584;9.694;2024-03-06T01:56:10;15.20;;;7.95;;
77146;SDS011;66121;52.584;9.694;2024-03-06T01:58:39;15.65;;;7.75;;
77146;SDS011;66121;52.584;9.694;2024-03-06T02:01:05;16.90;;;7.97;;
77146;SDS011;66121;52.584;9.694;2024-03-06T02:03:32;16.98;;;8.18;;
77146;SDS011;66121;52.584;9.694;2024-03-06T02:05:58;14.43;;;7.35;;
77146;SDS011;66121;52.584;9.694;2024-03-06T02:08:26;20.48;;;9.35;;
77146;SDS011;66121;52.584;9.694;2024-03-06T02:10:52;19.77;;;8.77;;
77146;SDS011;66121;52.584;9.694;2024-03-06T02:13:17;19.63;;;8.75;;
77146;SDS011;66121;52.584;9.694;2024-03-06T02:15:44;13.85;;;5.85;;
77146;SDS011;66121;52.584;9.694;2024-03-06T02:18:10;20.33;;;9.10;;
77146;SDS011;66121;52.584;9.694;2024-03-06T02:20:37;18.65;;;9.77;;
77146;SDS011;66121;52.584;9.694;2024-03-06T02:23:04;16.10;;;9.13;;
77146;SDS011;66121;52.584;9.694;2024-03-06T02:25:29;20.43;;;8.87;;
77146;SDS011;66121;52.584;9.694;2024-03-06T02:27:54;19.40;;;8.98;;
77146;SDS011;66121;52.584;9.694;2024-03-06T02:30:20;27.00;;;14.53;;
77146;SDS011;66121;52.584;9.694;2024-03-06T02:32:45;76.03;;;33.28;;
77146;SDS011;66121;52.584;9.694;2024-03-06T02:35:11;32.33;;;18.45;;
77146;SDS011;66121;52.584;9.694;2024-03-06T02:37:37;16.08;;;9.18;;
77146;SDS011;66121;52.584;9.694;2024-03-06T02:40:03;22.08;;;10.48;;
77146;SDS011;66121;52.584;9.694;2024-03-06T02:42:32;18.42;;;9.57;;
77146;SDS011;66121;52.584;9.694;2024-03-06T02:44:57;17.75;;;9.60;;
77146;SDS011;66121;52.584;9.694;2024-03-06T02:47:23;18.38;;;7.68;;
77146;SDS011;66121;52.584;9.694;2024-03-06T02:49:48;19.73;;;8.93;;
77146;SDS011;66121;52.584;9.694;2024-03-06T02:52:13;20.50;;;8.67;;
77146;SDS011;66121;52.584;9.694;2024-03-06T02:54:40;17.33;;;9.57;;
77146;SDS011;66121;52.584;9.694;2024-03-06T02:57:07;19.65;;;10.02;;
77146;SDS011;66121;52.584;9.694;2024-03-06T02:59:32;18.70;;;9.60;;
77146;SDS011;66121;52.584;9.694;2024-03-06T03:01:57;18.27;;;8.30;;
77146;SDS011;66121;52.584;9.694;2024-03-06T03:04:23;23.70;;;10.43;;
77146;SDS011;66121;52.584;9.694;2024-03-06T03:06:48;15.57;;;8.30;;
77146;SDS011;66121;52.584;9.694;2024-03-06T03:09:13;18.10;;;8.23;;
77146;SDS011;66121;52.584;9.694;2024-03-06T03:11:39;19.52;;;9.23;;
77146;SDS011;66121;52.584;9.694;2024-03-06T03:14:04;24.50;;;10.50;;
77146;SDS011;66121;52.584;9.694;2024-03-06T03:16:29;20.60;;;9.57;;
77146;SDS011;66121;52.584;9.694;2024-03-06T03:18:57;20.58;;;9.93;;
77146;SDS011;66121;52.584;9.694;2024-03-06T03:21:22;19.40;;;9.00;;
77146;SDS011;66121;52.584;9.694;2024-03-06T03:23:48;18.30;;;10.05;;
77146;SDS011;66121;52.584;9.694;2024-03-06T03:26:14;17.65;;;10.18;;
77146;SDS011;66121;52.584;9.694;2024-03-06T03:28:40;20.63;;;10.02;;
77146;SDS011;66121;52.584;9.694;2024-03-06T03:31:08;19.70;;;9.65;;
77146;SDS011;66121;52.584;9.694;2024-03-06T03:33:43;21.67;;;10.60;;
77146;SDS011;66121;52.584;9.694;2024-03-06T03:36:08;21.85;;;10.27;;
77146;SDS011;66121;52.584;9.694;2024-03-06T03:38:38;18.20;;;8.95;;
77146;SDS011;66121;52.584;9.694;2024-03-06T03:41:12;18.98;;;9.77;;
77146;SDS011;66121;52.584;9.694;2024-03-06T03:43:41;21.50;;;9.98;;
77146;SDS011;66121;52.584;9.694;2024-03-06T03:46:07;21.70;;;12.02;;
77146;SDS011;66121;52.584;9.694;2024-03-06T03:48:32;20.40;;;10.07;;
77146;SDS011;66121;52.584;9.694;2024-03-06T03:51:04;16.52;;;9.25;;
77146;SDS011;66121;52.584;9.694;2024-03-06T03:53:30;20.40;;;9.82;;
77146;SDS011;66121;52.584;9.694;2024-03-06T03:55:55;20.53;;;10.67;;
77146;SDS011;66121;52.584;9.694;2024-03-06T03:58:21;19.93;;;9.50;;
77146;SDS011;66121;52.584;9.694;2024-03-06T04:00:46;17.23;;;8.60;;
77146;SDS011;66121;52.584;9.694;2024-03-06T04:03:12;23.45;;;10.18;;
77146;SDS011;66121;52.584;9.694;2024-03-06T04:05:37;23.27;;;11.18;;
77146;SDS011;66121;52.584;9.694;2024-03-06T04:08:03;17.80;;;8.57;;
77146;SDS011;66121;52.584;9.694;2024-03-06T04:10:31;23.10;;;10.20;;
77146;SDS011;66121;52.584;9.694;2024-03-06T04:12:56;16.40;;;9.57;;
77146;SDS011;66121;52.584;9.694;2024-03-06T04:15:24;20.70;;;9.68;;
77146;SDS011;66121;52.584;9.694;2024-03-06T04:17:50;23.45;;;10.65;;
77146;SDS011;66121;52.584;9.694;2024-03-06T04:20:15;20.63;;;10.35;;
77146;SDS011;66121;52.584;9.694;2024-03-06T04:22:41;19.60;;;8.60;;
77146;SDS011;66121;52.584;9.694;2024-03-06T04:25:06;17.38;;;10.30;;
77146;SDS011;66121;52.584;9.694;2024-03-06T04:27:32;18.27;;;8.70;;
77146;SDS011;66121;52.584;9.694;2024-03-06T04:29:58;13.93;;;8.00;;
77146;SDS011;66121;52.584;9.694;2024-03-06T04:32:23;19.87;;;9.67;;
77146;SDS011;66121;52.584;9.694;2024-03-06T04:34:49;22.05;;;10.20;;
77146;SDS011;66121;52.584;9.694;2024-03-06T04:37:14;22.92;;;10.50;;
77146;SDS011;66121;52.584;9.694;2024-03-06T04:39:40;17.77;;;8.95;;
77146;SDS011;66121;52.584;9.694;2024-03-06T04:42:06;17.23;;;9.23;;
77146;SDS011;66121;52.584;9.694;2024-03-06T04:44:33;19.77;;;9.07;;
77146;SDS011;66121;52.584;9.694;2024-03-06T04:46:59;19.25;;;8.80;;
77146;SDS011;66121;52.584;9.694;2024-03-06T04:49:24;21.20;;;10.53;;
77146;SDS011;66121;52.584;9.694;2024-03-06T04:51:50;21.53;;;10.93;;
77146;SDS011;66121;52.584;9.694;2024-03-06T04:54:15;21.60;;;10.57;;
77146;SDS011;66121;52.584;9.694;2024-03-06T04:56:40;19.48;;;10.65;;
77146;SDS011;66121;52.584;9.694;2024-03-06T04:59:06;23.47;;;11.50;;
77146;SDS011;66121;52.584;9.694;2024-03-06T05:01:31;22.43;;;10.80;;
77146;SDS011;66121;52.584;9.694;2024-03-06T05:03:56;27.77;;;10.43;;
77146;SDS011;66121;52.584;9.694;2024-03-06T05:06:22;22.17;;;10.60;;
77146;SDS011;66121;52.584;9.694;2024-03-06T05:08:47;23.15;;;11.68;;
77146;SDS011;66121;52.584;9.694;2024-03-06T05:11:13;21.85;;;10.23;;
77146;SDS011;66121;52.584;9.694;2024-03-06T05:13:38;19.80;;;10.10;;
77146;SDS011;66121;52.584;9.694;2024-03-06T05:16:04;23.63;;;10.93;;
77146;SDS011;66121;52.584;9.694;2024-03-06T05:18:30;19.00;;;9.80;;
77146;SDS011;66121;52.584;9.694;2024-03-06T05:20:55;24.30;;;10.23;;
77146;SDS011;66121;52.584;9.694;2024-03-06T05:23:20;24.97;;;10.47;;
77146;SDS011;66121;52.584;9.694;2024-03-06T05:25:46;20.80;;;10.05;;
77146;SDS011;66121;52.584;9.694;2024-03-06T05:28:11;22.02;;;10.45;;
77146;SDS011;66121;52.584;9.694;2024-03-06T05:30:37;24.02;;;9.32;;
77146;SDS011;66121;52.584;9.694;2024-03-06T05:33:02;26.83;;;10.85;;
77146;SDS011;66121;52.584;9.694;2024-03-06T05:35:27;16.80;;;8.10;;
77146;SDS011;66121;52.584;9.694;2024-03-06T05:37:53;19.52;;;9.70;;
77146;SDS011;66121;52.584;9.694;2024-03-06T05:40:18;21.43;;;10.53;;
77146;SDS011;66121;52.584;9.694;2024-03-06T05:42:43;32.53;;;11.48;;
77146;SDS011;66121;52.584;9.694;2024-03-06T05:45:09;21.05;;;10.15;;
77146;SDS011;66121;52.584;9.694;2024-03-06T05:47:37;22.55;;;10.73;;
77146;SDS011;66121;52.584;9.694;2024-03-06T05:50:03;19.73;;;8.10;;
77146;SDS011;66121;52.584;9.694;2024-03-06T05:52:32;13.52;;;5.65;;
77146;SDS011;66121;52.584;9.694;2024-03-06T05:54:59;22.02;;;9.30;;
77146;SDS011;66121;52.584;9.694;2024-03-06T05:57:24;20.65;;;10.90;;
77146;SDS011;66121;52.584;9.694;2024-03-06T05:59:50;21.80;;;10.70;;
77146;SDS011;66121;52.584;9.694;2024-03-06T06:02:15;24.60;;;10.82;;
77146;SDS011;66121;52.584;9.694;2024-03-06T06:04:45;24.17;;;10.73;;
77146;SDS011;66121;52.584;9.694;2024-03-06T06:07:10;23.02;;;9.88;;
77146;SDS011;66121;52.584;9.694;2024-03-06T06:09:35;24.00;;;11.30;;
77146;SDS011;66121;52.584;9.694;2024-03-06T06:12:01;26.30;;;11.63;;
77146;SDS011;66121;52.584;9.694;2024-03-06T06:14:26;26.80;;;11.07;;
77146;SDS011;66121;52.584;9.694;2024-03-06T06:16:54;23.90;;;11.32;;
77146;SDS011;66121;52.584;9.694;2024-03-06T06:19:19;26.37;;;12.17;;
77146;SDS011;66121;52.584;9.694;2024-03-06T06:21:44;22.93;;;10.37;;
77146;SDS011;66121;52.584;9.694;2024-03-06T06:24:12;22.83;;;10.30;;
77146;SDS011;66121;52.584;9.694;2024-03-06T06:26:37;22.40;;;11.60;;
77146;SDS011;66121;52.584;9.694;2024-03-06T06:29:02;20.63;;;10.98;;
77146;SDS011;66121;52.584;9.694;2024-03-06T06:31:28;23.47;;;11.03;;
77146;SDS011;66121;52.584;9.694;2024-03-06T06:33:53;25.15;;;11.70;;
77146;SDS011;66121;52.584;9.694;2024-03-06T06:36:19;25.90;;;10.88;;
77146;SDS011;66121;52.584;9.694;2024-03-06T06:38:45;18.42;;;10.10;;
77146;SDS011;66121;52.584;9.694;2024-03-06T06:41:11;17.23;;;8.85;;
77146;SDS011;66121;52.584;9.694;2024-03-06T06:43:36;22.67;;;11.13;;
77146;SDS011;66121;52.584;9.694;2024-03-06T06:46:02;24.75;;;10.77;;
77146;SDS011;66121;52.584;9.694;2024-03-06T06:48:29;28.50;;;11.63;;
77146;SDS011;66121;52.584;9.694;2024-03-06T06:50:55;23.27;;;10.77;;
77146;SDS011;66121;52.584;9.694;2024-03-06T06:53:20;13.27;;;7.18;;
77146;SDS011;66121;52.584;9.694;2024-03-06T06:55:46;24.57;;;11.87;;
77146;SDS011;66121;52.584;9.694;2024-03-06T06:58:11;17.77;;;7.40;;
77146;SDS011;66121;52.584;9.694;2024-03-06T07:00:36;24.80;;;11.20;;
77146;SDS011;66121;52.584;9.694;2024-03-06T07:03:02;24.70;;;11.63;;
77146;SDS011;66121;52.584;9.694;2024-03-06T07:05:28;24.02;;;11.60;;
77146;SDS011;66121;52.584;9.694;2024-03-06T07:07:53;27.98;;;11.40;;
77146;SDS011;66121;52.584;9.694;2024-03-06T07:10:19;27.55;;;11.70;;
77146;SDS011;66121;52.584;9.694;2024-03-06T07:12:44;17.35;;;9.13;;
77146;SDS011;66121;52.584;9.694;2024-03-06T07:15:09;16.63;;;7.90;;
77146;SDS011;66121;52.584;9.694;2024-03-06T07:17:35;22.65;;;12.50;;
77146;SDS011;66121;52.584;9.694;2024-03-06T07:20:00;22.60;;;10.77;;
77146;SDS011;66121;52.584;9.694;2024-03-06T07:22:26;24.27;;;11.20;;
77146;SDS011;66121;52.584;9.694;2024-03-06T07:24:51;20.70;;;9.80;;
77146;SDS011;66121;52.584;9.694;2024-03-06T07:27:16;29.80;;;11.30;;
77146;SDS011;66121;52.584;9.694;2024-03-06T07:29:43;24.60;;;11.15;;
77146;SDS011;66121;52.584;9.694;2024-03-06T07:32:08;28.83;;;13.25;;
77146;SDS011;66121;52.584;9.694;2024-03-06T07:34:34;22.80;;;11.75;;
77146;SDS011;66121;52.584;9.694;2024-03-06T07:37:00;24.40;;;12.13;;
77146;SDS011;66121;52.584;9.694;2024-03-06T07:39:25;26.27;;;11.77;;
77146;SDS011;66121;52.584;9.694;2024-03-06T07:41:51;23.98;;;12.10;;
77146;SDS011;66121;52.584;9.694;2024-03-06T07:44:16;22.23;;;11.02;;
77146;SDS011;66121;52.584;9.694;2024-03-06T07:46:41;29.40;;;12.88;;
77146;SDS011;66121;52.584;9.694;2024-03-06T07:49:07;27.23;;;11.07;;
77146;SDS011;66121;52.584;9.694;2024-03-06T07:51:32;15.60;;;8.10;;
77146;SDS011;66121;52.584;9.694;2024-03-06T07:53:58;22.02;;;10.98;;
77146;SDS011;66121;52.584;9.694;2024-03-06T07:56:24;26.30;;;12.52;;
77146;SDS011;66121;52.584;9.694;2024-03-06T07:58:50;28.27;;;13.48;;
77146;SDS011;66121;52.584;9.694;2024-03-06T08:01:16;27.85;;;13.15;;
77146;SDS011;66121;52.584;9.694;2024-03-06T08:03:42;27.60;;;12.23;;
77146;SDS011;66121;52.584;9.694;2024-03-06T08:06:08;26.10;;;12.48;;
77146;SDS011;66121;52.584;9.694;2024-03-06T08:08:34;32.72;;;15.98;;
77146;SDS011;66121;52.584;9.694;2024-03-06T08:11:00;98.43;;;38.38;;
77146;SDS011;66121;52.584;9.694;2024-03-06T08:13:26;27.05;;;13.85;;
77146;SDS011;66121;52.584;9.694;2024-03-06T08:15:52;80.45;;;30.98;;
77146;SDS011;66121;52.584;9.694;2024-03-06T08:18:18;51.85;;;20.83;;
77146;SDS011;66121;52.584;9.694;2024-03-06T08:20:43;47.87;;;24.63;;
77146;SDS011;66121;52.584;9.694;2024-03-06T08:23:09;41.50;;;21.13;;
77146;SDS011;66121;52.584;9.694;2024-03-06T08:25:35;35.47;;;20.27;;
77146;SDS011;66121;52.584;9.694;2024-03-06T08:28:00;28.70;;;15.60;;
77146;SDS011;66121;52.584;9.694;2024-03-06T08:30:25;28.77;;;14.77;;
77146;SDS011;66121;52.584;9.694;2024-03-06T08:32:51;24.02;;;13.00;;
77146;SDS011;66121;52.584;9.694;2024-03-06T08:35:16;25.67;;;13.80;;
77146;SDS011;66121;52.584;9.694;2024-03-06T08:37:43;28.15;;;12.82;;
77146;SDS011;66121;52.584;9.694;2024-03-06T08:40:10;25.10;;;14.40;;
77146;SDS011;66121;52.584;9.694;2024-03-06T08:42:40;26.88;;;12.50;;
77146;SDS011;66121;52.584;9.694;2024-03-06T08:45:06;25.50;;;12.40;;
77146;SDS011;66121;52.584;9.694;2024-03-06T08:47:32;25.15;;;12.02;;
77146;SDS011;66121;52.584;9.694;2024-03-06T08:49:58;21.90;;;12.02;;
77146;SDS011;66121;52.584;9.694;2024-03-06T08:52:23;22.52;;;12.18;;
77146;SDS011;66121;52.584;9.694;2024-03-06T08:54:49;21.17;;;11.73;;
77146;SDS011;66121;52.584;9.694;2024-03-06T08:57:14;25.10;;;12.37;;
77146;SDS011;66121;52.584;9.694;2024-03-06T08:59:40;29.70;;;12.80;;
77146;SDS011;66121;52.584;9.694;2024-03-06T09:04:40;22.38;;;12.60;;
77146;SDS011;66121;52.584;9.694;2024-03-06T09:07:06;25.65;;;12.77;;
77146;SDS011;66121;52.584;9.694;2024-03-06T09:09:31;25.20;;;12.30;;
77146;SDS011;66121;52.584;9.694;2024-03-06T09:11:58;17.48;;;8.73;;
77146;SDS011;66121;52.584;9.694;2024-03-06T09:14:34;23.83;;;11.50;;
77146;SDS011;66121;52.584;9.694;2024-03-06T09:17:00;24.63;;;13.13;;
77146;SDS011;66121;52.584;9.694;2024-03-06T09:19:25;22.48;;;10.32;;
77146;SDS011;66121;52.584;9.694;2024-03-06T09:21:51;24.95;;;13.20;;
77146;SDS011;66121;52.584;9.694;2024-03-06T09:24:16;28.25;;;12.10;;
77146;SDS011;66121;52.584;9.694;2024-03-06T09:26:43;29.35;;;12.93;;
77146;SDS011;66121;52.584;9.694;2024-03-06T09:29:08;23.52;;;12.10;;
77146;SDS011;66121;52.584;9.694;2024-03-06T09:31:34;23.47;;;12.37;;
77146;SDS011;66121;52.584;9.694;2024-03-06T09:33:59;24.57;;;11.63;;
77146;SDS011;66121;52.584;9.694;2024-03-06T09:36:24;25.17;;;12.13;;
77146;SDS011;66121;52.584;9.694;2024-03-06T09:38:50;15.70;;;9.15;;
77146;SDS011;66121;52.584;9.694;2024-03-06T09:41:17;27.42;;;11.18;;
77146;SDS011;66121;52.584;9.694;2024-03-06T09:43:43;26.05;;;13.50;;
77146;SDS011;66121;52.584;9.694;2024-03-06T09:46:09;23.48;;;12.65;;
77146;SDS011;66121;52.584;9.694;2024-03-06T09:48:35;27.67;;;13.35;;
77146;SDS011;66121;52.584;9.694;2024-03-06T09:51:01;25.50;;;12.52;;
77146;SDS011;66121;52.584;9.694;2024-03-06T09:53:29;25.48;;;13.88;;
77146;SDS011;66121;52.584;9.694;2024-03-06T09:55:55;24.63;;;13.80;;
77146;SDS011;66121;52.584;9.694;2024-03-06T09:58:22;24.60;;;12.02;;
77146;SDS011;66121;52.584;9.694;2024-03-06T10:00:48;26.55;;;12.95;;
77146;SDS011;66121;52.584;9.694;2024-03-06T10:03:15;24.02;;;13.52;;
77146;SDS011;66121;52.584;9.694;2024-03-06T10:05:40;28.80;;;12.50;;
77146;SDS011;66121;52.584;9.694;2024-03-06T10:08:08;29.27;;;12.93;;
77146;SDS011;66121;52.584;9.694;2024-03-06T10:10:35;23.90;;;12.15;;
77146;SDS011;66121;52.584;9.694;2024-03-06T10:13:01;26.45;;;12.98;;
77146;SDS011;66121;52.584;9.694;2024-03-06T10:15:27;14.55;;;9.30;;
77146;SDS011;66121;52.584;9.694;2024-03-06T10:18:12;29.98;;;12.55;;
77146;SDS011;66121;52.584;9.694;2024-03-06T10:20:39;21.83;;;10.80;;
77146;SDS011;66121;52.584;9.694;2024-03-06T10:23:05;24.33;;;12.13;;
77146;SDS011;66121;52.584;9.694;2024-03-06T10:25:32;27.83;;;12.88;;
77146;SDS011;66121;52.584;9.694;2024-03-06T10:28:10;27.13;;;12.95;;
77146;SDS011;66121;52.584;9.694;2024-03-06T10:30:37;23.40;;;12.38;;
77146;SDS011;66121;52.584;9.694;2024-03-06T10:33:07;22.13;;;10.95;;
77146;SDS011;66121;52.584;9.694;2024-03-06T10:35:33;25.48;;;11.70;;
77146;SDS011;66121;52.584;9.694;2024-03-06T10:38:00;20.83;;;10.88;;
77146;SDS011;66121;52.584;9.694;2024-03-06T10:40:27;27.23;;;12.45;;
77146;SDS011;66121;52.584;9.694;2024-03-06T10:42:56;25.38;;;12.75;;
77146;SDS011;66121;52.584;9.694;2024-03-06T10:45:23;29.88;;;12.70;;
77146;SDS011;66121;52.584;9.694;2024-03-06T10:47:59;25.13;;;12.65;;
77146;SDS011;66121;52.584;9.694;2024-03-06T10:50:27;24.23;;;12.13;;
77146;SDS011;66121;52.584;9.694;2024-03-06T10:52:55;25.60;;;14.85;;
77146;SDS011;66121;52.584;9.694;2024-03-06T10:55:22;20.30;;;10.80;;
77146;SDS011;66121;52.584;9.694;2024-03-06T10:57:49;23.85;;;12.13;;
77146;SDS011;66121;52.584;9.694;2024-03-06T11:00:18;22.65;;;12.63;;
77146;SDS011;66121;52.584;9.694;2024-03-06T11:02:46;24.88;;;12.55;;
77146;SDS011;66121;52.584;9.694;2024-03-06T11:05:14;20.73;;;12.30;;
77146;SDS011;66121;52.584;9.694;2024-03-06T11:07:41;25.58;;;13.35;;
77146;SDS011;66121;52.584;9.694;2024-03-06T11:10:06;23.25;;;13.60;;
77146;SDS011;66121;52.584;9.694;2024-03-06T11:12:36;26.65;;;13.93;;
77146;SDS011;66121;52.584;9.694;2024-03-06T11:15:08;30.33;;;13.68;;
77146;SDS011;66121;52.584;9.694;2024-03-06T11:17:36;14.85;;;8.25;;
77146;SDS011;66121;52.584;9.694;2024-03-06T11:28:15;24.27;;;12.93;;
77146;SDS011;66121;52.584;9.694;2024-03-06T11:30:45;30.02;;;14.85;;
77146;SDS011;66121;52.584;9.694;2024-03-06T11:33:12;20.45;;;11.45;;
77146;SDS011;66121;52.584;9.694;2024-03-06T11:35:41;27.95;;;13.55;;
77146;SDS011;66121;52.584;9.694;2024-03-06T11:38:09;21.75;;;11.88;;
77146;SDS011;66121;52.584;9.694;2024-03-06T11:40:42;21.40;;;11.15;;
77146;SDS011;66121;52.584;9.694;2024-03-06T11:43:26;20.40;;;10.23;;
77146;SDS011;66121;52.584;9.694;2024-03-06T11:45:53;22.50;;;11.80;;
77146;SDS011;66121;52.584;9.694;2024-03-06T11:48:18;21.33;;;11.23;;
77146;SDS011;66121;52.584;9.694;2024-03-06T11:50:46;27.13;;;13.05;;
77146;SDS011;66121;52.584;9.694;2024-03-06T11:53:12;21.15;;;10.90;;
77146;SDS011;66121;52.584;9.694;2024-03-06T11:55:39;21.13;;;10.27;;
77146;SDS011;66121;52.584;9.694;2024-03-06T11:58:04;21.17;;;11.65;;
77146;SDS011;66121;52.584;9.694;2024-03-06T12:00:30;24.48;;;12.32;;
77146;SDS011;66121;52.584;9.694;2024-03-06T12:02:55;23.58;;;12.45;;
77146;SDS011;66121;52.584;9.694;2024-03-06T12:05:22;21.63;;;11.27;;
77146;SDS011;66121;52.584;9.694;2024-03-06T12:07:49;22.13;;;12.60;;
77146;SDS011;66121;52.584;9.694;2024-03-06T12:10:18;20.95;;;11.20;;
77146;SDS011;66121;52.584;9.694;2024-03-06T12:12:44;23.40;;;12.52;;
77146;SDS011;66121;52.584;9.694;2024-03-06T12:15:10;26.23;;;12.00;;
77146;SDS011;66121;52.584;9.694;2024-03-06T12:17:47;23.83;;;12.75;;
77146;SDS011;66121;52.584;9.694;2024-03-06T12:20:16;24.60;;;13.15;;
77146;SDS011;66121;52.584;9.694;2024-03-06T12:22:49;18.65;;;11.60;;
77146;SDS011;66121;52.584;9.694;2024-03-06T12:25:18;23.98;;;12.75;;
77146;SDS011;66121;52.584;9.694;2024-03-06T12:27:45;20.75;;;11.38;;
77146;SDS011;66121;52.584;9.694;2024-03-06T12:30:11;22.27;;;11.60;;
77146;SDS011;66121;52.584;9.694;2024-03-06T12:32:38;22.38;;;11.43;;
77146;SDS011;66121;52.584;9.694;2024-03-06T12:35:04;22.38;;;12.02;;
77146;SDS011;66121;52.584;9.694;2024-03-06T12:37:30;24.42;;;11.95;;
77146;SDS011;66121;52.584;9.694;2024-03-06T12:39:56;23.08;;;11.35;;
77146;SDS011;66121;52.584;9.694;2024-03-06T12:42:22;22.85;;;11.73;;
77146;SDS011;66121;52.584;9.694;2024-03-06T12:44:49;25.33;;;13.90;;
77146;SDS011;66121;52.584;9.694;2024-03-06T12:47:14;21.98;;;12.45;;
77146;SDS011;66121;52.584;9.694;2024-03-06T12:49:40;25.50;;;14.00;;
77146;SDS011;66121;52.584;9.694;2024-03-06T12:52:05;26.27;;;13.18;;
77146;SDS011;66121;52.584;9.694;2024-03-06T12:54:30;24.23;;;12.57;;
77146;SDS011;66121;52.584;9.694;2024-03-06T12:56:56;24.93;;;11.90;;
77146;SDS011;66121;52.584;9.694;2024-03-06T12:59:22;26.33;;;13.20;;
77146;SDS011;66121;52.584;9.694;2024-03-06T13:01:47;25.20;;;14.20;;
77146;SDS011;66121;52.584;9.694;2024-03-06T13:04:13;24.98;;;13.18;;
77146;SDS011;66121;52.584;9.694;2024-03-06T13:06:38;29.15;;;12.90;;
77146;SDS011;66121;52.584;9.694;2024-03-06T13:09:05;21.95;;;12.85;;
77146;SDS011;66121;52.584;9.694;2024-03-06T13:11:31;25.23;;;14.38;;
77146;SDS011;66121;52.584;9.694;2024-03-06T13:13:57;22.67;;;12.57;;
77146;SDS011;66121;52.584;9.694;2024-03-06T13:16:23;24.73;;;13.20;;
77146;SDS011;66121;52.584;9.694;2024-03-06T13:18:48;24.52;;;11.93;;
77146;SDS011;66121;52.584;9.694;2024-03-06T13:21:19;25.52;;;12.75;;
77146;SDS011;66121;52.584;9.694;2024-03-06T13:23:45;20.73;;;12.50;;
77146;SDS011;66121;52.584;9.694;2024-03-06T13:26:10;18.52;;;11.00;;
77146;SDS011;66121;52.584;9.694;2024-03-06T13:28:37;26.75;;;13.20;;
77146;SDS011;66121;52.584;9.694;2024-03-06T13:31:03;22.45;;;13.15;;
77146;SDS011;66121;52.584;9.694;2024-03-06T13:33:31;24.33;;;12.95;;
77146;SDS011;66121;52.584;9.694;2024-03-06T13:35:56;22.57;;;12.80;;
77146;SDS011;66121;52.584;9.694;2024-03-06T13:38:22;25.30;;;11.85;;
77146;SDS011;66121;52.584;9.694;2024-03-06T13:40:47;19.95;;;12.13;;
77146;SDS011;66121;52.584;9.694;2024-03-06T13:43:12;19.37;;;11.33;;
77146;SDS011;66121;52.584;9.694;2024-03-06T13:45:38;24.40;;;12.87;;
77146;SDS011;66121;52.584;9.694;2024-03-06T13:48:16;19.98;;;11.63;;
77146;SDS011;66121;52.584;9.694;2024-03-06T13:50:44;20.75;;;11.25;;
77146;SDS011;66121;52.584;9.694;2024-03-06T13:53:10;21.30;;;11.43;;
77146;SDS011;66121;52.584;9.694;2024-03-06T13:55:36;21.90;;;10.80;;
77146;SDS011;66121;52.584;9.694;2024-03-06T13:58:01;18.77;;;10.60;;
77146;SDS011;66121;52.584;9.694;2024-03-06T14:00:27;22.17;;;12.32;;
77146;SDS011;66121;52.584;9.694;2024-03-06T14:02:53;17.10;;;10.85;;
77146;SDS011;66121;52.584;9.694;2024-03-06T14:05:18;21.92;;;11.48;;
77146;SDS011;66121;52.584;9.694;2024-03-06T14:07:49;17.30;;;11.13;;
77146;SDS011;66121;52.584;9.694;2024-03-06T14:10:17;20.42;;;11.95;;
77146;SDS011;66121;52.584;9.694;2024-03-06T14:12:47;24.38;;;11.05;;
77146;SDS011;66121;52.584;9.694;2024-03-06T14:15:12;23.55;;;11.23;;
77146;SDS011;66121;52.584;9.694;2024-03-06T14:17:38;23.13;;;12.40;;
77146;SDS011;66121;52.584;9.694;2024-03-06T14:20:06;22.17;;;12.68;;
77146;SDS011;66121;52.584;9.694;2024-03-06T14:22:32;21.25;;;11.77;;
77146;SDS011;66121;52.584;9.694;2024-03-06T14:24:57;19.33;;;11.25;;
77146;SDS011;66121;52.584;9.694;2024-03-06T14:27:23;20.40;;;11.40;;
77146;SDS011;66121;52.584;9.694;2024-03-06T14:29:48;16.08;;;10.50;;
77146;SDS011;66121;52.584;9.694;2024-03-06T14:32:14;23.23;;;11.65;;